Time;durP1;ratioP1;P1;durP2;ratioP2;P2;SDS_P1;SDS_P2;PMS_P1;PMS_P2;Temp;Humidity;BMP_temperature;BMP_pressure;BME280_temperature;BME280_humidity;BME280_pressure;Samples;Min_cycle;Max_cycle;Signal;HPM_P1;HPM_P2
2021/09/24 00:02:07;;;;;;;4.13;2.90;;;;;;;8.39;76.23;91131.97;5000659;28;20033;-88
2021/09/24 00:04:35;;;;;;;5.53;3.08;;;;;;;8.51;75.56;91131.34;5017060;28;20013;-88
2021/09/24 00:07:01;;;;;;;4.40;2.85;;;;;;;8.41;75.84;91116.06;5019214;28;20018;-88
2021/09/24 00:09:26;;;;;;;4.60;3.28;;;;;;;8.37;77.15;91127.09;5025162;28;20036;-87
2021/09/24 00:11:52;;;;;;;5.25;3.60;;;;;;;8.34;77.11;91126.94;5052747;28;20031;-89
2021/09/24 00:14:17;;;;;;;4.63;3.22;;;;;;;8.14;77.82;91126.47;5052961;28;20028;-88
2021/09/24 00:16:42;;;;;;;4.80;3.10;;;;;;;8.09;78.59;91124.06;5045124;28;20025;-87
2021/09/24 00:19:08;;;;;;;4.47;3.42;;;;;;;8.14;79.08;91117.94;5064966;28;20029;-86
2021/09/24 00:21:33;;;;;;;5.57;3.80;;;;;;;8.48;77.70;91117.16;5054670;28;20025;-87
2021/09/24 00:23:59;;;;;;;4.93;3.35;;;;;;;8.43;77.65;91114.69;5052928;28;20509;-88
2021/09/24 00:26:24;;;;;;;6.00;3.58;;;;;;;8.84;76.40;91102.97;5031046;28;20080;-87
2021/09/24 00:28:50;;;;;;;5.35;3.45;;;;;;;8.74;76.06;91108.50;5002376;28;20017;-87
2021/09/24 00:31:15;;;;;;;4.50;3.40;;;;;;;8.66;76.58;91104.09;5036338;28;20028;-88
2021/09/24 00:33:40;;;;;;;3.85;3.13;;;;;;;8.61;76.89;91102.44;5052598;28;20035;-87
2021/09/24 00:36:06;;;;;;;6.57;3.88;;;;;;;8.49;77.63;91095.28;5053299;28;20028;-87
2021/09/24 00:38:32;;;;;;;4.55;3.33;;;;;;;8.36;78.03;91093.59;5036684;28;20036;-88
2021/09/24 00:40:57;;;;;;;3.97;3.10;;;;;;;8.33;78.34;91094.22;5049672;28;20029;-87
2021/09/24 00:43:23;;;;;;;5.97;3.78;;;;;;;8.60;77.66;91109.47;5020967;28;20021;-87
2021/09/24 00:45:48;;;;;;;5.10;3.97;;;;;;;8.96;75.81;91113.47;5049562;28;20495;-87
2021/09/24 00:48:13;;;;;;;5.82;3.45;;;;;;;9.05;75.18;91119.41;5033818;28;20036;-87
2021/09/24 00:50:39;;;;;;;5.07;4.00;;;;;;;9.11;76.07;91132.97;5030924;28;20036;-87
2021/09/24 00:53:04;;;;;;;5.53;3.97;;;;;;;9.05;76.59;91118.63;5034246;28;20026;-87
2021/09/24 00:55:31;;;;;;;4.80;3.63;;;;;;;8.96;77.04;91126.47;5000696;28;20398;-87
2021/09/24 00:57:56;;;;;;;5.35;3.95;;;;;;;8.97;77.41;91117.56;5022956;28;20009;-88
2021/09/24 01:00:22;;;;;;;5.78;3.60;;;;;;;8.90;77.88;91119.91;5040942;28;20077;-87
2021/09/24 01:02:48;;;;;;;4.90;3.60;;;;;;;8.61;77.04;91123.22;5051251;28;20041;-87
2021/09/24 01:05:14;;;;;;;7.60;3.78;;;;;;;8.54;77.33;91123.69;5028009;28;20017;-87
2021/09/24 01:07:41;;;;;;;5.80;3.78;;;;;;;8.41;77.90;91121.28;5016960;28;20033;-88
2021/09/24 01:10:07;;;;;;;6.78;3.50;;;;;;;8.18;78.88;91116.25;5016641;28;20053;-87
2021/09/24 01:12:33;;;;;;;5.45;3.50;;;;;;;7.97;79.15;91113.53;5033936;28;20032;-88
2021/09/24 01:14:59;;;;;;;5.72;3.90;;;;;;;8.05;78.91;91106.78;5048782;28;20518;-87
2021/09/24 01:17:25;;;;;;;4.72;3.72;;;;;;;7.97;79.43;91103.13;5032984;28;20032;-87
2021/09/24 01:19:50;;;;;;;5.38;4.00;;;;;;;7.81;80.48;91092.47;5016335;28;20390;-87
2021/09/24 01:22:15;;;;;;;3.67;3.20;;;;;;;7.83;80.05;91089.56;5000018;28;20502;-87
2021/09/24 01:24:41;;;;;;;4.80;3.53;;;;;;;7.71;80.41;91092.03;5004189;28;20025;-86
2021/09/24 01:27:06;;;;;;;5.85;3.95;;;;;;;7.79;80.56;91086.06;5069220;28;20504;-85
2021/09/24 01:29:32;;;;;;;6.95;4.00;;;;;;;7.71;80.74;91087.59;5052657;28;20501;-86
2021/09/24 01:31:57;;;;;;;6.03;3.47;;;;;;;7.52;81.16;91082.69;5031894;28;20033;-87
2021/09/24 01:34:23;;;;;;;5.07;3.40;;;;;;;7.35;80.91;91075.69;4999593;28;20395;-87
2021/09/24 01:36:48;;;;;;;5.32;3.60;;;;;;;7.34;81.45;91081.16;5016337;28;20068;-87
2021/09/24 01:39:14;;;;;;;4.80;3.53;;;;;;;7.16;81.74;91068.16;5032855;28;20032;-87
2021/09/24 01:41:43;;;;;;;5.45;3.72;;;;;;;7.05;83.01;91068.75;5016246;28;20475;-87
2021/09/24 01:44:09;;;;;;;5.88;3.92;;;;;;;7.29;83.12;91058.75;5027548;28;20027;-86
2021/09/24 01:46:38;;;;;;;6.50;4.00;;;;;;;7.24;83.28;91068.47;5055317;28;20016;-86
2021/09/24 01:49:03;;;;;;;5.57;4.20;;;;;;;7.33;83.92;91066.66;5052889;28;20050;-87
2021/09/24 01:51:29;;;;;;;6.35;3.92;;;;;;;7.14;84.03;91074.72;5036133;28;20136;-87
2021/09/24 01:53:54;;;;;;;6.45;4.18;;;;;;;7.11;84.96;91057.19;5044204;28;20024;-87
2021/09/24 01:56:23;;;;;;;6.55;3.97;;;;;;;7.07;83.40;91069.22;5055550;28;20037;-88
2021/09/24 01:58:48;;;;;;;6.47;4.05;;;;;;;7.05;82.18;91066.94;5071258;28;20029;-87
2021/09/24 02:01:14;;;;;;;4.68;3.63;;;;;;;6.83;82.35;91061.84;5056097;28;20025;-87
2021/09/24 02:03:39;;;;;;;5.32;3.60;;;;;;;6.75;82.67;91057.41;5051098;28;20041;-88
2021/09/24 02:06:05;;;;;;;5.32;3.78;;;;;;;6.64;83.79;91052.50;5018462;28;20068;-87
2021/09/24 02:08:30;;;;;;;5.43;4.00;;;;;;;6.56;84.49;91053.22;5019626;28;20079;-87
2021/09/24 02:10:55;;;;;;;5.60;3.90;;;;;;;6.55;85.55;91051.72;5019700;28;20033;-88
2021/09/24 02:13:21;;;;;;;6.78;4.13;;;;;;;6.56;85.51;91050.63;5056353;28;20039;-88
2021/09/24 02:15:46;;;;;;;5.25;3.80;;;;;;;6.54;85.18;91057.97;5053411;28;20029;-86
2021/09/24 02:18:12;;;;;;;5.95;4.10;;;;;;;6.47;86.02;91063.56;5036880;28;20052;-87
2021/09/24 02:20:37;;;;;;;6.43;3.88;;;;;;;6.56;85.81;91063.59;5068854;28;20033;-86
2021/09/24 02:23:03;;;;;;;7.25;3.88;;;;;;;6.59;85.53;91062.22;5039910;28;20440;-87
2021/09/24 02:25:28;;;;;;;6.43;3.95;;;;;;;6.57;85.39;91065.13;5039469;28;20470;-87
2021/09/24 02:27:53;;;;;;;5.72;3.90;;;;;;;6.53;85.71;91071.94;5040094;28;20032;-87
2021/09/24 02:30:19;;;;;;;5.68;3.92;;;;;;;6.75;85.63;91068.53;5066796;28;20028;-87
2021/09/24 02:32:44;;;;;;;4.80;3.92;;;;;;;6.64;85.01;91077.63;5067710;28;20059;-86
2021/09/24 02:35:10;;;;;;;5.82;4.13;;;;;;;6.52;84.69;91078.19;5033625;28;20022;-87
2021/09/24 02:37:35;;;;;;;5.10;3.65;;;;;;;6.51;84.28;91076.69;5003375;28;20033;-87
2021/09/24 02:40:01;;;;;;;5.43;3.88;;;;;;;6.38;85.00;91082.69;5003226;28;20030;-87
2021/09/24 02:42:26;;;;;;;6.03;3.97;;;;;;;6.39;86.95;91073.88;5019907;28;20065;-87
2021/09/24 02:44:51;;;;;;;5.30;3.85;;;;;;;6.45;86.40;91072.69;5035108;28;20032;-88
2021/09/24 02:47:17;;;;;;;5.72;4.30;;;;;;;6.47;86.66;91078.34;5036555;28;20367;-87
2021/09/24 02:49:44;;;;;;;5.60;3.67;;;;;;;6.42;86.64;91079.22;5019125;28;20394;-87
2021/09/24 02:52:10;;;;;;;6.75;3.83;;;;;;;6.34;85.23;91071.41;5019115;28;20044;-86
2021/09/24 02:54:35;;;;;;;6.28;4.07;;;;;;;6.32;85.87;91078.72;5002212;28;20511;-87
2021/09/24 02:57:00;;;;;;;5.65;3.83;;;;;;;6.30;84.20;91076.44;5019590;28;20368;-87
2021/09/24 02:59:26;;;;;;;7.85;3.80;;;;;;;6.20;84.78;91072.25;5057529;23;20517;-89
2021/09/24 03:01:54;;;;;;;7.63;3.85;;;;;;;6.05;85.13;91077.81;5011633;28;20033;-88
2021/09/24 03:04:20;;;;;;;4.82;3.85;;;;;;;6.06;85.77;91074.16;5004498;28;20031;-88
2021/09/24 03:06:45;;;;;;;8.13;4.18;;;;;;;6.08;86.81;91079.03;5000555;28;20048;-88
2021/09/24 03:09:11;;;;;;;6.38;3.83;;;;;;;6.10;85.79;91067.34;4996249;28;20029;-88
2021/09/24 03:11:36;;;;;;;6.10;4.03;;;;;;;6.07;85.12;91073.09;4997385;28;20046;-87
2021/09/24 03:14:01;;;;;;;5.95;4.13;;;;;;;6.08;85.94;91074.66;5013090;28;20075;-88
2021/09/24 03:16:27;;;;;;;4.90;3.80;;;;;;;6.03;85.70;91072.16;5000186;28;21533;-90
2021/09/24 03:18:52;;;;;;;5.32;3.85;;;;;;;5.95;86.10;91070.28;5033041;28;20040;-88
2021/09/24 03:21:18;;;;;;;6.03;4.32;;;;;;;5.93;87.28;91077.56;5033024;28;20021;-89
2021/09/24 03:23:43;;;;;;;6.78;4.05;;;;;;;5.86;88.27;91070.19;5016549;28;20139;-89
2021/09/24 03:26:09;;;;;;;5.20;3.65;;;;;;;5.80;88.52;91068.06;5016121;28;20045;-89
2021/09/24 03:28:34;;;;;;;6.90;3.53;;;;;;;5.82;87.74;91065.91;5016318;28;20022;-90
2021/09/24 03:30:59;;;;;;;6.32;4.03;;;;;;;5.83;87.15;91059.69;5032980;28;20021;-89
2021/09/24 03:33:25;;;;;;;8.52;4.30;;;;;;;5.80;87.16;91058.47;5016385;28;20052;-90
2021/09/24 03:35:50;;;;;;;5.63;3.60;;;;;;;5.78;86.34;91059.81;5016124;28;20029;-89
2021/09/24 03:38:16;;;;;;;8.32;4.20;;;;;;;5.72;86.03;91053.97;5016395;28;20487;-88
2021/09/24 03:40:41;;;;;;;7.03;4.35;;;;;;;5.77;86.81;91051.28;5033290;28;20025;-88
2021/09/24 03:43:07;;;;;;;6.57;4.38;;;;;;;5.87;87.45;91052.88;5016228;28;20482;-87
2021/09/24 03:45:32;;;;;;;6.57;3.90;;;;;;;5.85;87.98;91049.81;5016181;28;20017;-88
2021/09/24 03:47:57;;;;;;;7.22;4.22;;;;;;;5.70;88.05;91046.53;5015884;28;20040;-88
2021/09/24 03:50:24;;;;;;;5.40;3.85;;;;;;;5.80;88.71;91047.38;5033080;28;20026;-88
2021/09/24 03:52:52;;;;;;;5.78;3.95;;;;;;;5.70;89.28;91046.53;5039228;28;20080;-88
2021/09/24 03:55:18;;;;;;;7.10;3.88;;;;;;;5.80;89.84;91040.38;5013611;28;20037;-91
2021/09/24 03:57:43;;;;;;;7.28;4.22;;;;;;;5.79;88.76;91035.47;5022793;28;20037;-88
2021/09/24 04:00:09;;;;;;;5.45;3.80;;;;;;;5.76;87.82;91031.66;5014714;28;20489;-89
2021/09/24 04:02:35;;;;;;;8.07;4.25;;;;;;;5.68;87.99;91033.13;5013009;28;20026;-89
2021/09/24 04:05:00;;;;;;;6.35;4.18;;;;;;;5.76;87.67;91039.44;5012746;28;20040;-89
2021/09/24 04:07:26;;;;;;;7.35;4.03;;;;;;;5.72;87.45;91039.25;5012715;28;20034;-88
2021/09/24 04:09:51;;;;;;;6.13;4.32;;;;;;;5.60;86.53;91041.59;5015183;28;20045;-88
2021/09/24 04:12:16;;;;;;;8.07;4.10;;;;;;;5.39;87.19;91037.94;5020386;28;20038;-88
2021/09/24 04:14:42;;;;;;;5.78;3.78;;;;;;;5.35;87.54;91042.94;5038419;28;20060;-89
2021/09/24 04:17:07;;;;;;;7.65;4.10;;;;;;;5.37;88.75;91034.88;5066535;28;20033;-88
2021/09/24 04:19:33;;;;;;;5.82;4.38;;;;;;;5.35;88.60;91048.09;5055722;28;20039;-89
2021/09/24 04:21:58;;;;;;;6.90;4.60;;;;;;;5.52;88.48;91039.72;5049603;28;20028;-88
2021/09/24 04:24:23;;;;;;;6.10;4.10;;;;;;;5.54;87.15;91039.41;5036071;28;20026;-89
2021/09/24 04:26:49;;;;;;;7.25;4.13;;;;;;;5.30;88.01;91042.28;5051057;28;20026;-89
2021/09/24 04:29:14;;;;;;;6.80;4.28;;;;;;;5.23;90.08;91040.88;5034298;28;20024;-88
2021/09/24 04:31:40;;;;;;;7.38;4.40;;;;;;;5.23;89.46;91040.88;5035375;28;20021;-88
2021/09/24 04:34:05;;;;;;;7.28;4.13;;;;;;;5.35;88.80;91035.19;5035921;28;20025;-88
2021/09/24 04:36:31;;;;;;;7.00;4.20;;;;;;;5.33;87.79;91034.69;5053276;28;20032;-89
2021/09/24 04:38:57;;;;;;;5.72;4.05;;;;;;;5.27;86.80;91041.06;5036541;28;20018;-89
2021/09/24 04:41:23;;;;;;;5.82;4.03;;;;;;;5.15;87.09;91036.38;5053171;28;20068;-88
2021/09/24 04:43:48;;;;;;;6.18;3.90;;;;;;;5.24;86.32;91046.81;5051703;28;20022;-88
2021/09/24 04:46:13;;;;;;;5.82;4.10;;;;;;;5.12;87.37;91039.53;5032067;28;20051;-88
2021/09/24 04:48:39;;;;;;;5.60;3.90;;;;;;;5.10;87.10;91041.66;5000094;28;20026;-88
2021/09/24 04:51:04;;;;;;;6.32;4.10;;;;;;;5.06;86.70;91039.97;5000076;28;20006;-88
2021/09/24 04:53:30;;;;;;;6.55;4.03;;;;;;;5.04;86.54;91048.75;5013818;28;20021;-87
2021/09/24 04:55:55;;;;;;;6.75;3.85;;;;;;;5.03;86.79;91041.31;5012622;28;20111;-87
2021/09/24 04:58:21;;;;;;;5.50;3.33;;;;;;;4.93;86.05;91046.69;5013527;28;20036;-89
2021/09/24 05:00:49;;;;;;;6.20;3.35;;;;;;;4.96;86.79;91040.94;4999332;28;20094;-89
2021/09/24 05:03:14;;;;;;;5.78;3.80;;;;;;;5.01;87.03;91043.41;4988143;28;20113;-89
2021/09/24 05:05:39;;;;;;;6.65;3.85;;;;;;;5.01;86.45;91046.75;4998394;28;20052;-88
2021/09/24 05:08:05;;;;;;;6.50;4.20;;;;;;;5.04;86.79;91047.97;4980554;28;20235;-88
2021/09/24 05:10:30;;;;;;;6.00;3.90;;;;;;;5.01;87.34;91043.41;4979141;28;20018;-88
2021/09/24 05:12:56;;;;;;;5.82;4.05;;;;;;;4.95;88.32;91060.06;4994971;28;20475;-89
2021/09/24 05:15:21;;;;;;;6.07;4.00;;;;;;;4.87;88.67;91058.91;4978725;28;20045;-89
2021/09/24 05:17:46;;;;;;;5.93;4.13;;;;;;;5.05;88.44;91054.69;4979039;28;20030;-88
2021/09/24 05:20:12;;;;;;;6.18;4.00;;;;;;;5.00;87.00;91052.97;4978664;28;20442;-89
2021/09/24 05:22:37;;;;;;;7.40;4.10;;;;;;;4.94;85.95;91064.44;4990622;28;20866;-88
2021/09/24 05:25:04;;;;;;;7.97;4.70;;;;;;;4.86;86.59;91062.56;4995976;28;20018;-89
2021/09/24 05:27:29;;;;;;;6.13;4.20;;;;;;;4.87;85.81;91063.31;5016352;28;20100;-88
2021/09/24 05:29:55;;;;;;;7.15;4.75;;;;;;;4.65;87.07;91062.19;5028318;28;20025;-88
2021/09/24 05:32:20;;;;;;;5.90;4.32;;;;;;;4.74;89.83;91067.47;5013577;28;20418;-88
2021/09/24 05:34:45;;;;;;;6.50;4.05;;;;;;;4.89;89.80;91066.38;4997522;28;20026;-88
2021/09/24 05:37:11;;;;;;;6.50;4.22;;;;;;;4.77;90.18;91062.47;5030849;28;20036;-87
2021/09/24 05:39:36;;;;;;;6.65;4.15;;;;;;;4.84;91.05;91064.69;4997458;28;20022;-88
2021/09/24 05:42:02;;;;;;;7.60;4.53;;;;;;;4.91;91.45;91059.09;5013589;28;20094;-88
2021/09/24 05:44:28;;;;;;;6.60;4.43;;;;;;;4.94;90.11;91055.94;5026715;28;20525;-88
2021/09/24 05:46:53;;;;;;;7.07;4.35;;;;;;;4.91;89.92;91056.50;4994368;28;20030;-88
2021/09/24 05:49:18;;;;;;;8.10;4.40;;;;;;;5.02;89.60;91053.47;4995389;28;20025;-88
2021/09/24 05:51:44;;;;;;;7.20;4.80;;;;;;;4.93;87.49;91062.94;4985862;28;20022;-88
2021/09/24 05:54:09;;;;;;;5.90;4.13;;;;;;;5.16;86.58;91060.38;5000755;28;20401;-88
2021/09/24 05:56:35;;;;;;;7.03;4.75;;;;;;;5.06;88.52;91061.38;4996767;28;20021;-89
2021/09/24 05:59:00;;;;;;;7.53;5.20;;;;;;;5.17;90.07;91060.13;4995851;28;20088;-89
2021/09/24 06:01:26;;;;;;;11.45;9.40;;;;;;;5.21;89.94;91062.88;4992220;28;20033;-88
2021/09/24 06:03:52;;;;;;;11.02;8.23;;;;;;;5.24;89.81;91068.22;5031179;28;20026;-88
2021/09/24 06:06:17;;;;;;;12.70;6.15;;;;;;;5.34;91.00;91071.66;5031053;28;20471;-88
2021/09/24 06:08:43;;;;;;;9.23;5.35;;;;;;;5.42;90.79;91074.31;5014281;28;20025;-88
2021/09/24 06:11:08;;;;;;;7.80;5.15;;;;;;;5.48;89.78;91072.38;5032032;28;20040;-89
2021/09/24 06:13:34;;;;;;;6.25;4.50;;;;;;;5.52;88.69;91073.31;5030656;28;20036;-88
2021/09/24 06:15:59;;;;;;;8.73;4.55;;;;;;;5.55;88.05;91070.16;5031052;28;20102;-88
2021/09/24 06:18:29;;;;;;;8.43;4.47;;;;;;;5.64;87.84;91070.97;5014517;28;20553;-89
2021/09/24 06:20:57;;;;;;;6.93;5.00;;;;;;;5.68;88.34;91065.97;5030393;28;20025;-88
2021/09/24 06:23:22;;;;;;;7.32;5.07;;;;;;;5.69;89.00;91068.28;5030575;28;20025;-87
2021/09/24 06:25:48;;;;;;;9.13;5.07;;;;;;;5.73;88.85;91066.63;5029989;28;20032;-89
2021/09/24 06:28:13;;;;;;;9.13;5.40;;;;;;;5.81;88.24;91069.56;5030307;28;20479;-88
2021/09/24 06:30:39;;;;;;;9.77;6.25;;;;;;;5.89;88.03;91071.44;4999047;28;20025;-88
2021/09/24 06:33:04;;;;;;;10.98;5.60;;;;;;;5.86;87.75;91069.44;5014025;28;20491;-88
2021/09/24 06:35:29;;;;;;;10.10;4.97;;;;;;;5.97;87.72;91075.94;5027347;28;20010;-89
2021/09/24 06:37:55;;;;;;;42.45;8.38;;;;;;;6.05;88.55;91071.88;5033705;28;20057;-88
2021/09/24 06:40:20;;;;;;;17.98;8.63;;;;;;;6.06;89.19;91079.34;5037549;28;20022;-87
2021/09/24 06:42:46;;;;;;;15.10;5.45;;;;;;;6.27;88.56;91082.19;5013050;28;20502;-88
2021/09/24 06:45:13;;;;;;;11.70;6.05;;;;;;;6.33;89.42;91082.84;5022501;28;20029;-87
2021/09/24 06:47:38;;;;;;;7.85;5.10;;;;;;;6.44;89.64;91084.09;5013902;28;20029;-85
2021/09/24 06:50:04;;;;;;;7.18;4.72;;;;;;;6.52;89.04;91083.38;5014217;28;20026;-87
2021/09/24 06:52:31;;;;;;;9.48;5.40;;;;;;;6.57;88.39;91080.66;5013478;28;20029;-87
2021/09/24 06:54:57;;;;;;;12.73;5.03;;;;;;;6.66;88.65;91078.09;5012739;28;20399;-87
2021/09/24 06:57:22;;;;;;;22.20;6.70;;;;;;;6.76;88.08;91082.25;4994150;28;20036;-87
2021/09/24 06:59:48;;;;;;;31.30;6.45;;;;;;;6.84;88.24;91078.91;4980613;28;20032;-87
2021/09/24 07:02:13;;;;;;;22.65;6.13;;;;;;;6.95;87.53;91080.16;5018286;28;20040;-88
2021/09/24 07:04:39;;;;;;;32.95;7.03;;;;;;;7.04;87.10;91077.59;5004269;28;20026;-87
2021/09/24 07:07:04;;;;;;;23.30;6.00;;;;;;;7.14;88.60;91078.09;4999653;28;20022;-87
2021/09/24 07:09:29;;;;;;;13.20;5.25;;;;;;;7.30;89.22;91075.81;4999460;28;20022;-88
2021/09/24 07:11:55;;;;;;;15.75;5.18;;;;;;;7.39;89.33;91073.25;5009941;28;20029;-87
2021/09/24 07:14:20;;;;;;;8.13;4.82;;;;;;;7.52;90.15;91074.16;5032371;28;20021;-88
2021/09/24 07:16:46;;;;;;;8.18;4.78;;;;;;;7.60;89.38;91074.16;5033137;28;20030;-87
2021/09/24 07:19:12;;;;;;;8.35;5.25;;;;;;;7.73;90.16;91082.09;5033098;28;20040;-87
2021/09/24 07:21:37;;;;;;;9.50;5.55;;;;;;;7.82;89.35;91075.84;5016096;28;20092;-88
2021/09/24 07:24:03;;;;;;;7.00;5.10;;;;;;;7.92;87.01;91084.38;5016149;28;20025;-87
2021/09/24 07:26:29;;;;;;;8.68;5.22;;;;;;;8.01;86.94;91080.69;5015956;28;20532;-87
2021/09/24 07:28:54;;;;;;;8.15;5.22;;;;;;;8.11;86.04;91075.19;5015576;28;20040;-87
2021/09/24 07:31:20;;;;;;;6.93;4.57;;;;;;;8.25;86.43;91076.84;5015994;28;20060;-87
2021/09/24 07:33:46;;;;;;;8.73;5.70;;;;;;;8.40;89.45;91078.97;5032298;28;20036;-87
2021/09/24 07:36:11;;;;;;;8.57;5.50;;;;;;;8.53;89.37;91080.59;5011108;28;20041;-87
2021/09/24 07:38:37;;;;;;;8.68;4.95;;;;;;;8.65;86.62;91079.19;5015341;28;20409;-87
2021/09/24 07:41:02;;;;;;;8.23;5.50;;;;;;;8.78;85.20;91080.81;5017239;28;20021;-88
2021/09/24 07:43:29;;;;;;;7.68;5.18;;;;;;;8.94;87.25;91092.22;5033403;28;20002;-90
2021/09/24 07:45:56;;;;;;;9.05;5.65;;;;;;;9.12;86.61;91086.94;5042586;28;20024;-88
2021/09/24 07:48:21;;;;;;;9.93;5.90;;;;;;;9.37;89.67;91088.63;5041824;28;20006;-88
2021/09/24 07:50:47;;;;;;;8.70;6.13;;;;;;;9.50;86.93;91085.00;4999866;28;20025;-87
2021/09/24 07:53:12;;;;;;;7.85;5.78;;;;;;;9.63;85.50;91079.88;5016313;28;20148;-88
2021/09/24 07:55:38;;;;;;;8.80;5.30;;;;;;;9.77;82.36;91085.59;5015982;28;20030;-85
2021/09/24 07:58:03;;;;;;;6.40;4.85;;;;;;;9.94;79.77;91089.91;5015449;28;20029;-88
2021/09/24 08:00:30;;;;;;;9.10;5.60;;;;;;;10.05;80.99;91091.81;5015810;28;20025;-89
2021/09/24 08:02:56;;;;;;;8.93;5.60;;;;;;;10.24;84.48;91093.91;5032037;28;20032;-88
2021/09/24 08:05:21;;;;;;;7.55;5.13;;;;;;;10.40;81.24;91096.72;5014656;28;20386;-89
2021/09/24 08:07:47;;;;;;;6.55;4.90;;;;;;;10.52;79.34;91099.34;5014550;28;20035;-88
2021/09/24 08:10:12;;;;;;;7.43;4.50;;;;;;;10.67;79.69;91099.81;5015799;28;20486;-88
2021/09/24 08:12:38;;;;;;;6.47;4.05;;;;;;;10.75;76.02;91094.50;5018718;28;20033;-87
2021/09/24 08:15:05;;;;;;;6.97;4.20;;;;;;;10.94;76.05;91095.84;5016340;28;20048;-88
2021/09/24 08:17:30;;;;;;;7.05;4.22;;;;;;;11.07;75.64;91099.22;5032592;28;20032;-88
2021/09/24 08:19:56;;;;;;;4.97;3.53;;;;;;;11.20;72.90;91090.28;5016010;28;20406;-88
2021/09/24 08:22:21;;;;;;;6.40;4.32;;;;;;;11.35;74.71;91088.88;5014387;28;20490;-88
2021/09/24 08:24:47;;;;;;;7.43;4.32;;;;;;;11.52;76.27;91095.69;5033719;28;20028;-88
2021/09/24 08:27:13;;;;;;;9.45;4.55;;;;;;;11.63;77.25;91099.41;5015299;28;20078;-88
2021/09/24 08:29:38;;;;;;;6.47;4.10;;;;;;;11.74;71.33;91100.47;5014662;28;20043;-87
2021/09/24 08:32:04;;;;;;;4.72;3.20;;;;;;;11.91;69.25;91089.03;5033244;28;20033;-88
2021/09/24 08:34:30;;;;;;;6.63;3.72;;;;;;;11.98;69.13;91094.44;5032905;28;20024;-88
2021/09/24 08:36:55;;;;;;;5.38;3.40;;;;;;;12.13;70.16;91091.13;5017660;28;20032;-89
2021/09/24 08:39:20;;;;;;;4.75;3.28;;;;;;;12.46;68.71;91095.34;5017104;28;20026;-88
2021/09/24 08:41:46;;;;;;;5.70;3.08;;;;;;;12.56;65.58;91092.22;5033986;28;20441;-88
2021/09/24 08:44:11;;;;;;;3.42;2.47;;;;;;;12.61;64.12;91091.22;5016886;28;20029;-88
2021/09/24 08:46:37;;;;;;;3.55;2.35;;;;;;;12.89;58.59;91093.78;5032764;28;20075;-88
2021/09/24 08:49:03;;;;;;;3.78;2.70;;;;;;;13.02;59.52;91094.47;5015586;28;20143;-88
2021/09/24 08:51:29;;;;;;;4.00;2.70;;;;;;;13.12;58.06;91093.97;4996571;28;20053;-88
2021/09/24 08:53:55;;;;;;;3.63;2.42;;;;;;;13.08;61.43;91090.50;4979944;28;20395;-87
2021/09/24 08:56:20;;;;;;;4.93;2.78;;;;;;;13.23;66.29;91089.72;4995284;28;20064;-87
2021/09/24 08:58:46;;;;;;;6.35;2.50;;;;;;;13.47;65.50;91095.91;5008068;28;20029;-87
2021/09/24 09:01:11;;;;;;;2.78;2.13;;;;;;;13.47;60.24;91091.44;5044262;23;20044;-90
2021/09/24 09:03:41;;;;;;;4.57;2.40;;;;;;;13.65;63.75;91091.06;5014473;28;20461;-88
2021/09/24 09:06:07;;;;;;;3.17;2.30;;;;;;;13.98;62.59;91095.84;4997563;28;20052;-88
2021/09/24 09:08:33;;;;;;;5.32;2.38;;;;;;;13.84;56.48;91097.06;5018685;28;20017;-91
2021/09/24 09:11:01;;;;;;;3.47;2.30;;;;;;;13.94;56.90;91089.78;5021580;28;20041;-89
2021/09/24 09:13:34;;;;;;;4.72;3.40;;;;;;;13.99;60.23;91092.13;5011131;28;20038;-88
2021/09/24 09:16:16;;;;;;;3.38;2.50;;;;;;;14.16;61.72;91090.97;4979288;28;20022;-89
2021/09/24 09:18:43;;;;;;;3.05;2.33;;;;;;;14.31;59.37;91093.53;4995084;28;20084;-89
2021/09/24 09:21:11;;;;;;;3.72;2.72;;;;;;;14.49;60.17;91095.72;4984164;28;20108;-89
2021/09/24 09:23:38;;;;;;;4.28;2.38;;;;;;;14.44;54.03;91091.50;5014354;28;20025;-90
2021/09/24 09:26:05;;;;;;;3.00;2.13;;;;;;;14.48;52.63;91086.31;4994374;28;20076;-89
2021/09/24 09:28:36;;;;;;;2.80;2.10;;;;;;;14.54;53.78;91090.22;5005706;28;20029;-89
2021/09/24 09:31:09;;;;;;;4.20;2.20;;;;;;;14.60;52.75;91080.97;4979288;28;20497;-89
2021/09/24 09:33:34;;;;;;;4.03;2.00;;;;;;;14.71;52.98;91089.75;4978054;28;20116;-89
2021/09/24 09:36:00;;;;;;;4.30;2.22;;;;;;;14.70;52.72;91093.50;5009989;28;20390;-90
2021/09/24 09:38:31;;;;;;;3.13;2.00;;;;;;;14.87;54.96;91096.75;5014277;28;20107;-90
2021/09/24 09:41:00;;;;;;;3.47;2.35;;;;;;;15.00;53.23;91095.50;4998029;28;20030;-89
2021/09/24 09:43:34;;;;;;;3.38;2.33;;;;;;;15.13;50.96;91094.22;5013781;28;20052;-89
2021/09/24 09:46:02;;;;;;;2.25;2.00;;;;;;;15.16;49.64;91097.97;4998298;28;20151;-89
2021/09/24 09:48:27;;;;;;;2.97;2.17;;;;;;;15.31;56.80;91094.50;4997981;28;20387;-89
2021/09/24 09:50:53;;;;;;;4.68;2.40;;;;;;;15.51;57.88;91089.88;4997642;28;20121;-89
2021/09/24 09:53:19;;;;;;;3.30;2.00;;;;;;;15.65;56.58;91097.97;5014299;28;20510;-88
2021/09/24 09:55:49;;;;;;;3.45;2.30;;;;;;;15.82;55.66;91091.47;5000278;28;20091;-89
2021/09/24 09:58:15;;;;;;;2.63;2.10;;;;;;;15.92;55.89;91090.13;4997389;28;20080;-89
2021/09/24 10:01:00;;;;;;;2.80;2.13;;;;;;;16.09;50.38;91086.22;4981450;28;20417;-88
2021/09/24 10:03:34;;;;;;;3.05;2.30;;;;;;;15.94;48.02;91082.66;4997146;28;20517;-89
2021/09/24 10:05:59;;;;;;;2.95;2.15;;;;;;;16.06;49.09;91085.03;5011842;28;20112;-87
2021/09/24 10:08:30;;;;;;;3.75;2.38;;;;;;;16.13;54.25;91079.13;4972944;28;20109;-88
2021/09/24 10:11:12;;;;;;;3.00;2.45;;;;;;;16.04;52.15;91082.00;4988832;28;20033;-89
2021/09/24 10:13:52;;;;;;;3.33;2.35;;;;;;;16.43;53.72;91076.44;4978756;28;20052;-88
2021/09/24 10:16:19;;;;;;;3.70;2.38;;;;;;;16.47;53.70;91075.38;4996820;28;20017;-90
2021/09/24 10:18:44;;;;;;;3.40;2.72;;;;;;;16.67;53.08;91085.72;4999809;28;20112;-89
2021/09/24 10:21:09;;;;;;;3.95;2.65;;;;;;;16.34;51.38;91087.25;5001196;28;20040;-89
2021/09/24 10:23:35;;;;;;;4.03;2.60;;;;;;;16.36;51.14;91087.66;4993123;28;20023;-89
2021/09/24 10:26:05;;;;;;;3.83;2.55;;;;;;;16.46;52.44;91084.38;4981678;28;20133;-89
2021/09/24 10:28:32;;;;;;;2.83;2.40;;;;;;;16.61;53.05;91077.41;4981356;28;20116;-89
2021/09/24 10:30:59;;;;;;;2.97;2.33;;;;;;;16.63;48.62;91075.16;4981657;28;20029;-89
2021/09/24 10:33:42;;;;;;;4.38;2.55;;;;;;;16.63;51.33;91072.53;4981395;28;20041;-89
2021/09/24 10:36:08;;;;;;;3.42;2.25;;;;;;;16.80;53.13;91083.63;4998972;28;20025;-87
2021/09/24 10:38:33;;;;;;;3.38;2.60;;;;;;;16.92;50.97;91070.19;5001892;28;20041;-89
2021/09/24 10:41:03;;;;;;;3.38;2.38;;;;;;;16.91;52.52;91085.22;5014314;28;20033;-89
2021/09/24 10:43:55;;;;;;;4.53;2.33;;;;;;;17.14;53.72;91071.91;5005687;28;20021;-88
2021/09/24 10:46:23;;;;;;;3.05;2.60;;;;;;;17.17;49.82;91076.44;4998653;28;20034;-89
2021/09/24 10:48:49;;;;;;;2.88;2.30;;;;;;;17.35;54.49;91073.16;5017439;28;20029;-89
2021/09/24 10:51:14;;;;;;;5.60;2.30;;;;;;;17.40;50.77;91070.22;4981970;28;20088;-89
2021/09/24 10:53:42;;;;;;;2.80;2.28;;;;;;;17.46;51.91;91068.00;4998412;28;20383;-89
2021/09/24 10:56:07;;;;;;;4.35;2.88;;;;;;;17.73;55.49;91073.81;4981680;28;20029;-88
2021/09/24 10:58:41;;;;;;;4.28;2.67;;;;;;;17.84;50.23;91069.38;5015269;28;20037;-89
2021/09/24 11:01:12;;;;;;;3.30;2.80;;;;;;;17.88;52.15;91067.53;4997467;28;20076;-88
2021/09/24 11:03:54;;;;;;;3.70;2.50;;;;;;;17.74;49.54;91070.03;4997400;28;20569;-88
2021/09/24 11:06:46;;;;;;;4.57;2.60;;;;;;;17.68;49.37;91067.75;4997990;28;20013;-89
2021/09/24 11:09:13;;;;;;;3.80;3.08;;;;;;;17.77;49.39;91064.06;5017094;28;20022;-89
2021/09/24 11:11:50;;;;;;;4.18;3.00;;;;;;;17.54;48.42;91067.69;5016966;28;20030;-88
2021/09/24 11:14:25;;;;;;;3.65;2.83;;;;;;;17.44;48.11;91063.09;5016285;28;20024;-89
2021/09/24 11:16:53;;;;;;;4.53;2.85;;;;;;;17.71;53.85;91061.00;5000844;28;20025;-88
2021/09/24 11:19:32;;;;;;;3.63;2.95;;;;;;;17.98;51.51;91063.44;4996292;28;20613;-88
2021/09/24 11:22:00;;;;;;;3.00;2.55;;;;;;;17.89;50.19;91058.50;5040889;28;20200;-90
2021/09/24 11:24:33;;;;;;;5.32;3.08;;;;;;;18.12;55.19;91058.22;5043565;28;20089;-89
2021/09/24 11:27:01;;;;;;;4.70;2.80;;;;;;;18.13;51.73;91047.31;5016939;28;20028;-90
2021/09/24 11:29:28;;;;;;;3.17;2.80;;;;;;;18.30;53.39;91055.66;4999432;28;20274;-89
2021/09/24 11:31:53;;;;;;;4.15;2.97;;;;;;;18.06;49.99;91059.72;5016924;28;20103;-89
2021/09/24 11:34:40;;;;;;;3.85;3.13;;;;;;;18.17;53.55;91059.78;5034342;28;20427;-89
2021/09/24 11:37:17;;;;;;;3.95;3.05;;;;;;;18.37;54.75;91064.38;5016483;28;20568;-89